createdAt,value
2023-02-17T00:01:54.680Z,9.60
2023-02-17T00:04:57.841Z,9.70
2023-02-17T00:08:00.820Z,9.60
2023-02-17T00:11:04.353Z,9.60
2023-02-17T00:14:12.973Z,9.70
2023-02-17T00:17:16.066Z,10.20
2023-02-17T00:20:19.450Z,12.00
2023-02-17T00:23:22.581Z,11.30
2023-02-17T00:26:25.642Z,9.70
2023-02-17T00:29:30.405Z,9.70
2023-02-17T00:32:33.489Z,9.70
2023-02-17T00:35:41.852Z,9.70
2023-02-17T00:38:45.354Z,9.70
2023-02-17T00:41:48.470Z,9.70
2023-02-17T00:44:52.839Z,9.70
2023-02-17T00:47:55.908Z,10.60
2023-02-17T00:50:59.707Z,9.60
2023-02-17T00:54:02.676Z,9.60
2023-02-17T00:57:05.917Z,9.70
2023-02-17T01:00:12.044Z,9.70
2023-02-17T01:03:15.355Z,9.60
2023-02-17T01:06:25.896Z,9.60
2023-02-17T01:09:29.016Z,9.10
2023-02-17T01:12:32.253Z,9.60
2023-02-17T01:15:41.977Z,9.60
2023-02-17T01:18:45.041Z,11.60
2023-02-17T01:21:48.195Z,9.60
2023-02-17T01:24:51.336Z,9.60
2023-02-17T01:27:55.384Z,7.90
2023-02-17T01:30:59.859Z,12.00
2023-02-17T01:34:06.469Z,9.50
2023-02-17T01:37:09.730Z,9.40
2023-02-17T01:40:15.015Z,9.50
2023-02-17T01:43:19.190Z,9.40
2023-02-17T01:46:23.589Z,9.40
2023-02-17T01:49:34.018Z,10.60
2023-02-17T01:52:37.650Z,9.30
2023-02-17T01:55:42.819Z,9.30
2023-02-17T01:58:56.175Z,9.30
2023-02-17T02:02:04.673Z,9.30
2023-02-17T02:05:08.130Z,9.30
2023-02-17T02:08:13.989Z,9.20
2023-02-17T02:11:17.056Z,9.20
2023-02-17T02:14:22.045Z,9.10
2023-02-17T02:17:41.083Z,9.20
2023-02-17T02:21:15.102Z,9.20
2023-02-17T02:24:28.407Z,9.10
2023-02-17T02:28:01.289Z,9.10
2023-02-17T02:31:38.063Z,9.10
2023-02-17T02:34:49.219Z,9.10
2023-02-17T02:38:01.279Z,9.10
2023-02-17T02:41:10.846Z,9.10
2023-02-17T02:44:17.078Z,8.20
2023-02-17T02:47:50.433Z,9.10
2023-02-17T02:51:22.312Z,9.20
2023-02-17T02:54:47.149Z,7.60
2023-02-17T02:57:59.520Z,9.20
2023-02-17T03:01:14.153Z,9.20
2023-02-17T03:04:31.766Z,9.20
2023-02-17T03:07:42.496Z,9.20
2023-02-17T03:10:53.568Z,9.20
2023-02-17T03:13:56.643Z,9.20
2023-02-17T03:16:59.606Z,9.20
2023-02-17T03:20:05.300Z,9.20
2023-02-17T03:23:10.403Z,9.20
2023-02-17T03:26:13.576Z,8.50
2023-02-17T03:29:16.895Z,9.30
2023-02-17T03:32:21.579Z,9.30
2023-02-17T03:35:24.872Z,9.30
2023-02-17T03:38:29.696Z,11.20
2023-02-17T03:41:32.670Z,9.40
2023-02-17T03:44:35.976Z,10.00
2023-02-17T03:47:39.113Z,9.40
2023-02-17T03:50:42.673Z,9.50
2023-02-17T03:53:47.595Z,9.50
2023-02-17T03:56:50.639Z,9.50
2023-02-17T03:59:53.700Z,9.50
2023-02-17T04:02:57.902Z,9.60
2023-02-17T04:06:01.528Z,9.60
2023-02-17T04:09:07.238Z,11.20
2023-02-17T04:12:10.448Z,9.70
2023-02-17T04:15:13.810Z,9.80
2023-02-17T04:18:17.791Z,9.80
2023-02-17T04:21:20.852Z,9.90
2023-02-17T04:24:25.303Z,10.70
2023-02-17T04:27:28.394Z,10.00
2023-02-17T04:30:32.000Z,10.10
2023-02-17T04:33:35.692Z,10.10
2023-02-17T04:36:38.721Z,10.10
2023-02-17T04:39:43.238Z,10.10
2023-02-17T04:42:46.737Z,11.40
2023-02-17T04:45:51.489Z,10.20
2023-02-17T04:48:55.051Z,10.30
2023-02-17T04:51:58.069Z,10.30
2023-02-17T04:55:04.850Z,10.30
2023-02-17T04:58:08.244Z,10.40
2023-02-17T05:01:11.529Z,10.20
2023-02-17T05:04:14.534Z,10.40
2023-02-17T05:07:17.560Z,10.40
2023-02-17T05:10:23.982Z,10.50
2023-02-17T05:13:27.555Z,10.50
2023-02-17T05:16:30.627Z,10.50
2023-02-17T05:19:33.859Z,10.50
2023-02-17T05:22:37.546Z,10.50
2023-02-17T05:25:41.903Z,10.50
2023-02-17T05:28:44.949Z,10.60
2023-02-17T05:31:48.133Z,11.90
2023-02-17T05:34:51.543Z,10.60
2023-02-17T05:37:54.591Z,12.20
2023-02-17T05:40:59.308Z,10.60
2023-02-17T05:44:02.403Z,10.70
2023-02-17T05:47:06.135Z,10.60
2023-02-17T05:50:09.964Z,10.70
2023-02-17T05:53:13.038Z,12.10
2023-02-17T05:56:17.585Z,11.00
2023-02-17T05:59:21.011Z,10.70
2023-02-17T06:02:24.080Z,12.00
2023-02-17T06:05:27.053Z,10.70
2023-02-17T06:08:30.041Z,10.80
2023-02-17T06:11:34.727Z,12.30
2023-02-17T06:14:37.915Z,11.20
2023-02-17T06:17:42.463Z,10.80
2023-02-17T06:20:45.864Z,10.80
2023-02-17T06:23:49.195Z,10.80
2023-02-17T06:26:53.649Z,10.80
2023-02-17T06:29:56.705Z,10.80
2023-02-17T06:33:00.118Z,10.80
2023-02-17T06:36:03.432Z,10.80
2023-02-17T06:39:06.684Z,9.80
2023-02-17T06:42:11.241Z,10.80
2023-02-17T06:45:14.589Z,10.80
2023-02-17T06:48:17.545Z,10.80
2023-02-17T06:51:20.672Z,10.90
2023-02-17T06:54:23.855Z,10.90
2023-02-17T06:57:28.275Z,10.90
2023-02-17T07:00:31.449Z,12.10
2023-02-17T07:03:34.541Z,10.90
2023-02-17T07:06:37.675Z,10.90
2023-02-17T07:09:41.482Z,12.80
2023-02-17T07:12:46.029Z,11.80
2023-02-17T07:15:49.063Z,10.90
2023-02-17T07:18:52.692Z,11.00
2023-02-17T07:21:55.864Z,10.80
2023-02-17T07:24:58.882Z,11.00
2023-02-17T07:28:03.180Z,11.00
2023-02-17T07:31:07.783Z,11.00
2023-02-17T07:34:10.792Z,11.00
2023-02-17T07:37:13.773Z,10.90
2023-02-17T07:40:16.796Z,11.00
2023-02-17T07:43:21.186Z,11.00
2023-02-17T07:46:24.949Z,11.00
2023-02-17T07:49:27.968Z,11.00
2023-02-17T07:52:31.106Z,11.00
2023-02-17T07:55:34.069Z,10.80
2023-02-17T07:58:41.086Z,11.00
2023-02-17T08:01:44.301Z,11.00
2023-02-17T08:04:47.406Z,11.00
2023-02-17T08:08:10.816Z,11.10
2023-02-17T08:11:33.655Z,12.60
2023-02-17T08:14:38.621Z,11.10
2023-02-17T08:17:41.678Z,11.10
2023-02-17T08:20:44.858Z,11.20
2023-02-17T08:23:47.972Z,11.20
2023-02-17T08:26:51.381Z,11.20
2023-02-17T08:29:56.046Z,11.20
2023-02-17T08:32:59.997Z,11.30
2023-02-17T08:36:08.494Z,11.30
2023-02-17T08:39:15.624Z,11.40
2023-02-17T08:42:19.751Z,11.40
2023-02-17T08:45:24.168Z,11.40
2023-02-17T08:48:27.336Z,10.40
2023-02-17T08:51:30.417Z,11.40
2023-02-17T08:54:33.582Z,11.40
2023-02-17T08:57:36.714Z,13.00
2023-02-17T09:00:41.279Z,11.50
2023-02-17T09:03:44.292Z,11.50
2023-02-17T09:06:51.280Z,13.20
2023-02-17T09:09:54.446Z,11.50
2023-02-17T09:12:57.918Z,11.50
2023-02-17T09:16:02.406Z,11.50
2023-02-17T09:19:06.348Z,11.50
2023-02-17T09:22:12.061Z,11.50
2023-02-17T09:25:19.673Z,11.50
2023-02-17T09:28:22.593Z,11.50
2023-02-17T09:31:28.618Z,11.60
2023-02-17T09:34:36.678Z,11.60
2023-02-17T09:37:41.556Z,11.50
2023-02-17T09:40:48.999Z,11.60
2023-02-17T09:43:53.245Z,11.60
2023-02-17T09:47:03.244Z,11.60
2023-02-17T09:50:13.580Z,13.10
2023-02-17T09:53:28.184Z,11.60
2023-02-17T09:56:38.004Z,10.50
2023-02-17T09:59:49.853Z,11.60
2023-02-17T10:03:00.600Z,11.60
2023-02-17T10:06:16.134Z,11.70
2023-02-17T10:09:25.256Z,11.70
2023-02-17T10:12:38.655Z,11.70
2023-02-17T10:15:51.605Z,11.60
2023-02-17T10:19:02.910Z,12.50
2023-02-17T10:22:17.704Z,11.80
2023-02-17T10:25:39.045Z,11.80
2023-02-17T10:28:54.293Z,11.80
2023-02-17T10:32:19.438Z,11.80
2023-02-17T10:35:39.753Z,11.90
2023-02-17T10:38:53.057Z,11.90
2023-02-17T10:41:57.183Z,11.90
2023-02-17T10:45:02.980Z,11.90
2023-02-17T10:48:13.800Z,13.10
2023-02-17T10:51:23.533Z,12.60
2023-02-17T10:54:35.668Z,12.00
2023-02-17T10:57:41.989Z,12.00
2023-02-17T11:00:47.570Z,12.00
2023-02-17T11:04:02.702Z,12.10
2023-02-17T11:07:14.743Z,12.10
2023-02-17T11:10:23.721Z,12.10
2023-02-17T11:13:37.122Z,12.10
2023-02-17T11:16:45.508Z,12.10
2023-02-17T11:19:59.457Z,12.10
2023-02-17T11:23:21.859Z,12.70
2023-02-17T11:26:28.715Z,12.10
2023-02-17T11:29:33.129Z,13.60
2023-02-17T11:32:37.250Z,13.00
2023-02-17T11:35:50.401Z,12.00
2023-02-17T11:38:55.170Z,12.00
2023-02-17T11:41:58.497Z,12.10
2023-02-17T11:45:16.497Z,12.00
2023-02-17T11:48:53.749Z,12.00
2023-02-17T11:52:15.062Z,12.10
2023-02-17T11:55:35.889Z,12.50
2023-02-17T11:59:05.286Z,12.10
2023-02-17T12:02:19.185Z,12.20
2023-02-17T12:05:31.376Z,12.20
2023-02-17T12:08:49.211Z,12.20
2023-02-17T12:12:06.798Z,12.20
2023-02-17T12:15:29.997Z,12.30
2023-02-17T12:18:52.938Z,12.60
2023-02-17T12:22:13.196Z,12.30
2023-02-17T12:25:32.603Z,12.10
2023-02-17T12:29:03.209Z,12.30
2023-02-17T12:32:35.801Z,12.30
2023-02-17T12:35:51.039Z,12.40
2023-02-17T12:39:00.421Z,12.40
2023-02-17T12:42:11.620Z,12.50
2023-02-17T12:45:26.288Z,11.10
2023-02-17T12:48:37.663Z,12.60
2023-02-17T12:51:49.233Z,12.60
2023-02-17T12:54:59.055Z,12.70
2023-02-17T12:58:08.274Z,13.50
2023-02-17T13:01:19.785Z,12.80
2023-02-17T13:04:26.459Z,12.80
2023-02-17T13:07:45.938Z,12.80
2023-02-17T13:11:07.302Z,12.80
2023-02-17T13:14:26.377Z,12.70
2023-02-17T13:17:34.239Z,12.90
2023-02-17T13:21:06.469Z,12.80
2023-02-17T13:24:31.716Z,12.80
2023-02-17T13:27:42.996Z,12.80
2023-02-17T13:30:52.372Z,12.90
2023-02-17T13:34:00.597Z,12.90
2023-02-17T13:37:18.003Z,13.00
2023-02-17T13:40:39.499Z,13.00
2023-02-17T13:43:47.448Z,13.50
2023-02-17T13:46:52.557Z,13.70
2023-02-17T13:49:58.667Z,12.80
2023-02-17T13:53:03.779Z,14.10
2023-02-17T13:56:10.890Z,14.30
2023-02-17T13:59:18.735Z,14.40
2023-02-17T14:02:35.472Z,14.60
2023-02-17T14:05:48.406Z,15.30
2023-02-17T14:08:56.765Z,14.80
2023-02-17T14:12:05.481Z,15.50
2023-02-17T14:15:18.591Z,14.90
2023-02-17T14:18:41.916Z,14.90
2023-02-17T14:21:59.686Z,18.90
2023-02-17T14:25:07.643Z,15.10
2023-02-17T14:28:21.164Z,17.10
2023-02-17T14:31:25.589Z,15.10
2023-02-17T14:34:33.049Z,15.00
2023-02-17T14:37:37.447Z,14.80
2023-02-17T14:40:40.907Z,12.60
2023-02-17T14:43:43.871Z,14.30
2023-02-17T14:46:46.853Z,16.00
2023-02-17T14:49:49.860Z,14.00
2023-02-17T14:52:54.433Z,12.90
2023-02-17T14:56:03.028Z,13.80
2023-02-17T14:59:06.252Z,13.70
2023-02-17T15:02:15.592Z,13.40
2023-02-17T15:05:19.581Z,14.50
2023-02-17T15:08:32.692Z,13.40
2023-02-17T15:11:38.368Z,13.60
2023-02-17T15:14:42.070Z,13.20
2023-02-17T15:17:45.530Z,13.20
2023-02-17T15:20:51.995Z,13.10
2023-02-17T15:23:58.566Z,14.90
2023-02-17T15:27:02.848Z,12.90
2023-02-17T15:30:07.643Z,12.90
2023-02-17T15:33:13.175Z,12.80
2023-02-17T15:36:18.798Z,11.90
2023-02-17T15:42:27.384Z,12.60
2023-02-17T15:45:31.545Z,13.20
2023-02-17T15:48:34.649Z,12.40
2023-02-17T15:51:37.746Z,12.30
2023-02-17T15:54:43.756Z,12.90
2023-02-17T15:57:50.855Z,12.10
2023-02-17T16:04:00.196Z,11.90
2023-02-17T16:07:03.181Z,11.80
2023-02-17T16:10:09.850Z,11.30
2023-02-17T16:13:16.821Z,11.80
2023-02-17T16:16:24.232Z,11.70
2023-02-17T16:19:28.342Z,11.70
2023-02-17T16:22:31.346Z,11.60
2023-02-17T16:25:36.525Z,11.60
2023-02-17T16:28:40.193Z,11.60
2023-02-17T16:31:43.967Z,10.80
2023-02-17T16:34:47.083Z,11.50
2023-02-17T16:37:56.062Z,11.40
2023-02-17T16:41:02.070Z,11.30
2023-02-17T16:44:07.541Z,11.30
2023-02-17T16:47:22.867Z,13.00
2023-02-17T16:50:29.488Z,11.90
2023-02-17T16:53:32.665Z,11.10
2023-02-17T16:56:43.329Z,11.10
2023-02-17T16:59:47.065Z,11.00
2023-02-17T17:02:51.130Z,10.90
2023-02-17T17:05:54.840Z,10.90
2023-02-17T17:08:58.198Z,10.90
2023-02-17T17:12:02.576Z,10.50
2023-02-17T17:15:06.459Z,10.80
2023-02-17T17:18:16.581Z,10.80
2023-02-17T17:21:21.467Z,10.80
2023-02-17T17:24:24.603Z,10.80
2023-02-17T17:30:35.860Z,10.80
2023-02-17T17:33:39.081Z,12.00
2023-02-17T17:36:45.587Z,10.80
2023-02-17T17:39:48.521Z,10.80
2023-02-17T17:42:53.648Z,12.20
2023-02-17T17:45:56.859Z,10.70
2023-02-17T17:49:05.560Z,10.30
2023-02-17T17:52:08.815Z,10.70
2023-02-17T17:55:11.961Z,9.00
2023-02-17T17:58:17.339Z,10.70
2023-02-17T18:01:21.853Z,10.70
2023-02-17T18:04:25.066Z,10.60
2023-02-17T18:07:30.541Z,10.60
2023-02-17T18:10:34.563Z,10.60
2023-02-17T18:13:39.529Z,10.70
2023-02-17T18:16:46.363Z,10.70
2023-02-17T18:19:54.528Z,10.60
2023-02-17T18:22:57.577Z,10.70
2023-02-17T18:26:01.162Z,10.60
2023-02-17T18:29:06.073Z,10.60
2023-02-17T18:32:09.326Z,10.60
2023-02-17T18:35:12.767Z,10.60
2023-02-17T18:38:15.985Z,10.50
2023-02-17T18:41:21.210Z,10.50
2023-02-17T18:44:25.695Z,10.40
2023-02-17T18:47:28.816Z,8.70
2023-02-17T18:50:32.976Z,10.30
2023-02-17T18:53:36.211Z,10.30
2023-02-17T18:56:39.674Z,10.30
2023-02-17T18:59:44.597Z,10.30
2023-02-17T19:02:47.749Z,10.90
2023-02-17T19:05:51.790Z,10.30
2023-02-17T19:08:55.611Z,8.00
2023-02-17T19:15:05.784Z,10.40
2023-02-17T19:18:08.938Z,10.40
2023-02-17T19:21:12.857Z,10.30
2023-02-17T19:24:16.908Z,11.70
2023-02-17T19:27:20.101Z,10.20
2023-02-17T19:30:24.564Z,10.90
2023-02-17T19:33:28.965Z,10.20
2023-02-17T19:36:32.039Z,10.10
2023-02-17T19:39:36.803Z,12.50
2023-02-17T19:42:40.280Z,8.80
2023-02-17T19:45:47.526Z,10.10
2023-02-17T19:48:50.975Z,10.30
2023-02-17T19:51:55.841Z,10.10
2023-02-17T19:54:59.641Z,10.10
2023-02-17T19:58:04.398Z,10.10
2023-02-17T20:01:11.148Z,10.10
2023-02-17T20:04:14.279Z,10.20
2023-02-17T20:07:17.298Z,10.10
2023-02-17T20:10:21.396Z,10.10
2023-02-17T20:13:28.548Z,9.90
2023-02-17T20:16:33.814Z,10.20
2023-02-17T20:19:39.013Z,10.20
2023-02-17T20:22:42.458Z,8.30
2023-02-17T20:25:46.603Z,10.20
2023-02-17T20:28:50.470Z,10.20
2023-02-17T20:31:55.237Z,10.50
2023-02-17T20:34:58.309Z,10.40
2023-02-17T20:38:01.585Z,10.20
2023-02-17T20:41:05.319Z,10.30
2023-02-17T20:44:08.629Z,11.90
2023-02-17T20:47:13.428Z,10.30
2023-02-17T20:50:21.026Z,10.30
2023-02-17T20:53:24.857Z,10.30
2023-02-17T20:56:35.219Z,10.30
2023-02-17T20:59:38.301Z,10.30
2023-02-17T21:02:42.699Z,10.20
2023-02-17T21:05:45.756Z,9.70
2023-02-17T21:08:53.483Z,9.10
2023-02-17T21:11:56.838Z,10.10
2023-02-17T21:14:59.900Z,10.10
2023-02-17T21:18:05.508Z,8.00
2023-02-17T21:21:08.848Z,10.00
2023-02-17T21:24:12.585Z,9.90
2023-02-17T21:27:15.548Z,9.90
2023-02-17T21:30:19.699Z,9.90
2023-02-17T21:33:24.424Z,9.90
2023-02-17T21:36:29.289Z,9.80
2023-02-17T21:39:32.683Z,9.80
2023-02-17T21:42:55.536Z,9.80
2023-02-17T21:45:58.827Z,9.80
2023-02-17T21:49:03.320Z,9.90
2023-02-17T21:52:06.694Z,9.70
2023-02-17T21:55:09.804Z,9.60
2023-02-17T21:58:14.264Z,9.60
2023-02-17T22:01:18.696Z,9.60
2023-02-17T22:04:23.875Z,9.60
2023-02-17T22:07:26.934Z,9.60
2023-02-17T22:10:30.180Z,9.50
2023-02-17T22:13:33.184Z,9.50
2023-02-17T22:16:37.660Z,9.50
2023-02-17T22:19:42.310Z,9.50
2023-02-17T22:22:45.312Z,9.50
2023-02-17T22:25:48.321Z,9.40
2023-02-17T22:28:52.372Z,9.40
2023-02-17T22:31:56.098Z,9.40
2023-02-17T22:35:00.676Z,11.20
2023-02-17T22:38:03.967Z,9.40
2023-02-17T22:41:09.076Z,9.40
2023-02-17T22:44:12.162Z,9.30
2023-02-17T22:47:15.387Z,10.70
2023-02-17T22:50:20.050Z,9.30
2023-02-17T22:53:24.350Z,9.30
2023-02-17T22:56:28.067Z,9.30
2023-02-17T22:59:31.098Z,9.30
2023-02-17T23:02:36.058Z,9.30
2023-02-17T23:05:42.119Z,9.30
2023-02-17T23:08:45.855Z,9.30
2023-02-17T23:11:54.633Z,9.30
2023-02-17T23:14:59.872Z,9.30
2023-02-17T23:18:03.012Z,9.30
2023-02-17T23:21:13.548Z,9.30
2023-02-17T23:24:17.460Z,9.30
2023-02-17T23:27:20.528Z,9.30
2023-02-17T23:30:24.194Z,9.30
2023-02-17T23:33:27.261Z,10.60
2023-02-17T23:36:32.072Z,9.30
2023-02-17T23:39:38.756Z,11.00
2023-02-17T23:42:41.816Z,10.30
2023-02-17T23:45:45.468Z,9.20
2023-02-17T23:48:48.543Z,9.20
2023-02-17T23:51:53.286Z,8.10
2023-02-17T23:54:56.462Z,9.60
2023-02-17T23:58:00.562Z,9.20
